Time;durP1;ratioP1;P1;durP2;ratioP2;P2;SDS_P1;SDS_P2;PMS_P1;PMS_P2;Temp;Humidity;BMP_temperature;BMP_pressure;BME280_temperature;BME280_humidity;BME280_pressure;Samples;Min_cycle;Max_cycle;Signal;HPM_P1;HPM_P2
2021/11/18 00:01:26;;;;;;;0.63;0.63;;;;;;;9.54;67.13;102738.22;5026822;28;20072;-89
2021/11/18 00:03:54;;;;;;;0.10;0.10;;;;;;;9.55;67.49;102724.09;5023452;28;20042;-91
2021/11/18 00:06:21;;;;;;;0.98;0.17;;;;;;;9.56;67.42;102727.66;5025927;28;20033;-92
2021/11/18 00:08:47;;;;;;;0.10;0.10;;;;;;;9.55;67.12;102724.09;5029230;28;20464;-92
2021/11/18 00:11:18;;;;;;;0.10;0.10;;;;;;;9.51;67.70;102729.34;5030364;28;20169;-92
2021/11/18 00:13:49;;;;;;;0.10;0.10;;;;;;;9.53;66.62;102732.88;5028787;28;20117;-92
2021/11/18 00:16:15;;;;;;;0.95;0.95;;;;;;;9.51;67.72;102738.16;5030129;28;20464;-93
2021/11/18 00:18:43;;;;;;;0.10;0.10;;;;;;;9.57;67.23;102742.69;5025478;28;20033;-91
2021/11/18 00:21:15;;;;;;;0.10;0.10;;;;;;;9.64;67.68;102735.72;5019890;28;20045;-93
2021/11/18 00:23:45;;;;;;;0.10;0.10;;;;;;;9.71;67.46;102741.09;5027918;28;20083;-93
2021/11/18 00:26:12;;;;;;;0.00;0.00;;;;;;;9.78;67.60;102736.81;5026433;28;20083;-89
2021/11/18 00:28:39;;;;;;;0.10;0.10;;;;;;;9.82;67.48;102735.06;5028405;28;20029;-92
2021/11/18 00:31:07;;;;;;;0.20;0.20;;;;;;;9.83;67.67;102740.41;5027425;28;20087;-89
2021/11/18 00:33:35;;;;;;;0.00;0.00;;;;;;;9.82;67.43;102751.84;5031452;28;20037;-92
2021/11/18 00:36:02;;;;;;;0.10;0.10;;;;;;;9.80;66.78;102755.34;5026272;28;20034;-91
2021/11/18 00:38:28;;;;;;;0.10;0.10;;;;;;;9.80;67.52;102747.41;5028719;28;20463;-89
2021/11/18 00:40:56;;;;;;;0.10;0.10;;;;;;;9.82;66.98;102745.66;5030332;28;20057;-90
2021/11/18 00:43:24;;;;;;;0.10;0.10;;;;;;;9.77;67.63;102739.41;5032136;28;20096;-90
2021/11/18 00:45:51;;;;;;;1.17;1.17;;;;;;;9.74;66.98;102734.97;5042741;22;20045;-87
2021/11/18 00:48:18;;;;;;;0.10;0.10;;;;;;;9.68;67.30;102738.44;5030988;28;20037;-87
2021/11/18 00:50:50;;;;;;;0.10;0.10;;;;;;;9.62;67.80;102740.97;5033050;28;20028;-87
2021/11/18 00:53:18;;;;;;;0.10;0.10;;;;;;;9.62;67.92;102735.69;5033611;28;20049;-84
2021/11/18 00:55:45;;;;;;;0.10;0.10;;;;;;;9.57;67.98;102732.09;5033479;28;20033;-87
2021/11/18 00:58:11;;;;;;;0.10;0.10;;;;;;;9.60;67.15;102732.13;5030873;28;20038;-87
2021/11/18 01:00:40;;;;;;;0.13;0.13;;;;;;;9.60;67.63;102729.47;5033463;28;20120;-86
2021/11/18 01:03:08;;;;;;;0.10;0.10;;;;;;;9.58;68.35;102725.03;5033714;28;20036;-87
2021/11/18 01:05:39;;;;;;;0.10;0.10;;;;;;;9.62;67.67;102730.41;5033181;28;20021;-84
2021/11/18 01:08:06;;;;;;;0.10;0.10;;;;;;;9.59;68.02;102734.75;5033818;28;20373;-85
2021/11/18 01:10:40;;;;;;;0.30;0.30;;;;;;;9.63;67.71;102753.34;5032490;28;20112;-86
2021/11/18 01:13:09;;;;;;;0.10;0.10;;;;;;;9.61;67.28;102748.88;5033174;28;20034;-86
2021/11/18 01:15:41;;;;;;;0.10;0.10;;;;;;;9.60;67.67;102750.66;5033531;28;20028;-87
2021/11/18 01:18:07;;;;;;;0.10;0.10;;;;;;;9.59;67.47;102751.50;5031417;28;20041;-87
2021/11/18 01:20:35;;;;;;;0.17;0.17;;;;;;;9.57;68.59;102755.91;5031026;28;20021;-87
2021/11/18 01:23:07;;;;;;;0.10;0.10;;;;;;;9.55;68.46;102758.50;5032346;28;20030;-84
2021/11/18 01:25:33;;;;;;;0.10;0.10;;;;;;;9.56;68.26;102751.47;5031471;28;20030;-86
2021/11/18 01:27:59;;;;;;;0.10;0.10;;;;;;;9.58;67.59;102755.00;5031452;28;20239;-87
2021/11/18 01:30:28;;;;;;;0.00;0.00;;;;;;;9.58;68.00;102754.13;5032173;28;20022;-87
2021/11/18 01:32:56;;;;;;;0.10;0.10;;;;;;;9.60;68.16;102753.28;5032988;28;20029;-86
2021/11/18 01:35:22;;;;;;;0.10;0.10;;;;;;;9.58;68.23;102757.66;5030088;28;20772;-86
2021/11/18 01:37:48;;;;;;;0.10;0.10;;;;;;;9.61;68.33;102765.66;5029897;28;20112;-87
2021/11/18 01:40:20;;;;;;;0.10;0.10;;;;;;;9.64;67.95;102763.03;5032778;28;20476;-86
2021/11/18 01:42:47;;;;;;;0.28;0.28;;;;;;;9.66;67.89;102763.97;5033509;28;20035;-86
2021/11/18 01:45:23;;;;;;;0.10;0.10;;;;;;;9.70;67.80;102775.50;5033471;28;20477;-86
2021/11/18 01:48:04;;;;;;;0.10;0.10;;;;;;;9.75;67.87;102767.63;5025197;28;20033;-86
2021/11/18 01:50:40;;;;;;;0.15;0.15;;;;;;;9.76;68.00;102765.00;5033363;28;20021;-86
2021/11/18 01:53:28;;;;;;;0.10;0.10;;;;;;;9.82;67.98;102764.19;5033405;28;20025;-87
2021/11/18 01:55:54;;;;;;;0.52;0.52;;;;;;;9.75;67.77;102762.34;5026394;28;20076;-86
2021/11/18 01:58:22;;;;;;;0.10;0.10;;;;;;;9.72;67.89;102755.25;5033236;28;20377;-87
2021/11/18 02:00:53;;;;;;;0.10;0.10;;;;;;;9.71;68.13;102766.69;5030664;28;20481;-87
2021/11/18 02:03:20;;;;;;;0.20;0.20;;;;;;;9.67;67.50;102776.34;5028249;28;20041;-87
2021/11/18 02:05:54;;;;;;;0.10;0.10;;;;;;;9.73;68.19;102780.81;5032594;28;20033;-86
2021/11/18 02:08:23;;;;;;;2.28;2.13;;;;;;;9.74;68.28;102771.13;5029822;28;20029;-86
2021/11/18 02:10:53;;;;;;;0.10;0.10;;;;;;;9.76;67.75;102774.69;5032219;28;20064;-87
2021/11/18 02:13:21;;;;;;;0.00;0.00;;;;;;;9.78;68.83;102789.75;5032387;28;20029;-88
2021/11/18 02:15:51;;;;;;;1.38;1.08;;;;;;;9.82;68.75;102790.66;5032594;28;20116;-87
2021/11/18 02:18:23;;;;;;;0.10;0.10;;;;;;;9.88;68.66;102782.78;5031811;28;20446;-88
2021/11/18 02:20:53;;;;;;;0.10;0.10;;;;;;;9.91;68.71;102784.63;5032307;28;20890;-87
2021/11/18 02:23:22;;;;;;;0.10;0.10;;;;;;;9.93;68.68;102798.75;5032180;28;20057;-87
2021/11/18 02:25:52;;;;;;;0.28;0.28;;;;;;;9.94;68.23;102788.19;5032063;28;20123;-87
2021/11/18 02:28:20;;;;;;;0.10;0.10;;;;;;;9.85;69.30;102781.00;5032058;28;20088;-87
2021/11/18 02:30:48;;;;;;;0.10;0.10;;;;;;;9.96;68.76;102782.94;5029431;28;20627;-86
2021/11/18 02:33:17;;;;;;;0.10;0.10;;;;;;;10.01;68.68;102784.75;5029748;28;20052;-87
2021/11/18 02:35:44;;;;;;;3.40;0.85;;;;;;;10.09;68.69;102784.84;5029297;28;20372;-87
2021/11/18 02:38:11;;;;;;;0.10;0.10;;;;;;;10.10;68.64;102777.81;5032703;28;20025;-87
2021/11/18 02:40:38;;;;;;;0.10;0.10;;;;;;;10.19;68.30;102775.25;5032664;28;20029;-88
2021/11/18 02:43:05;;;;;;;0.10;0.10;;;;;;;10.23;68.39;102786.78;5031353;28;20116;-87
2021/11/18 02:45:35;;;;;;;0.35;0.35;;;;;;;10.29;67.85;102782.47;5028195;28;20120;-87
2021/11/18 02:48:02;;;;;;;0.05;0.05;;;;;;;10.30;67.76;102778.06;5031715;28;20045;-87
2021/11/18 02:50:33;;;;;;;0.30;0.30;;;;;;;10.30;68.28;102778.94;5031143;28;20053;-87
2021/11/18 02:53:00;;;;;;;0.10;0.10;;;;;;;10.30;68.09;102778.94;5030066;28;20025;-87
2021/11/18 02:55:30;;;;;;;0.10;0.10;;;;;;;10.41;68.18;102780.88;5028676;28;20041;-88
2021/11/18 02:57:57;;;;;;;0.10;0.10;;;;;;;10.36;68.34;102779.03;5031767;28;20029;-88
2021/11/18 03:00:29;;;;;;;0.10;0.10;;;;;;;10.36;68.30;102781.69;5029692;28;20025;-85
2021/11/18 03:02:56;;;;;;;0.10;0.10;;;;;;;10.33;68.86;102786.94;5028805;28;20021;-87
2021/11/18 03:05:23;;;;;;;4.65;2.80;;;;;;;10.40;68.09;102795.00;5026561;28;20354;-87
2021/11/18 03:07:50;;;;;;;0.10;0.10;;;;;;;10.50;67.94;102778.31;5029037;28;20029;-85
2021/11/18 03:10:21;;;;;;;0.10;0.10;;;;;;;10.50;67.99;102771.28;5029996;28;20151;-87
2021/11/18 03:12:47;;;;;;;0.00;0.00;;;;;;;10.50;68.07;102773.03;5031180;28;20393;-88
2021/11/18 03:15:14;;;;;;;0.10;0.10;;;;;;;10.50;68.31;102778.31;5030682;28;20467;-86
2021/11/18 03:17:41;;;;;;;0.10;0.10;;;;;;;10.51;68.77;102772.16;5032367;28;20052;-87
2021/11/18 03:20:12;;;;;;;0.08;0.08;;;;;;;10.51;68.63;102780.09;5026236;28;20018;-84
2021/11/18 03:22:39;;;;;;;0.10;0.10;;;;;;;10.57;68.51;102779.31;5031078;28;20068;-85
2021/11/18 03:25:08;;;;;;;0.10;0.10;;;;;;;10.61;68.52;102779.31;5028628;28;20489;-87
2021/11/18 03:27:36;;;;;;;1.73;1.65;;;;;;;10.63;68.31;102771.38;5028345;28;20030;-87
2021/11/18 03:30:05;;;;;;;0.10;0.10;;;;;;;10.72;68.27;102773.28;5025563;28;20026;-87
2021/11/18 03:32:31;;;;;;;0.20;0.20;;;;;;;10.70;68.47;102770.59;5030524;28;20029;-87
2021/11/18 03:34:58;;;;;;;0.15;0.15;;;;;;;10.73;68.30;102770.63;5031796;28;20037;-88
2021/11/18 03:37:24;;;;;;;0.10;0.10;;;;;;;10.67;68.36;102774.09;5034641;28;20508;-84
2021/11/18 03:39:52;;;;;;;0.10;0.10;;;;;;;10.77;68.26;102768.91;5035181;28;20029;-88
2021/11/18 03:42:18;;;;;;;0.10;0.10;;;;;;;10.76;68.21;102768.00;5034281;28;20033;-88
2021/11/18 03:44:45;;;;;;;0.10;0.10;;;;;;;10.76;68.25;102768.00;5035286;28;20428;-88
2021/11/18 03:47:14;;;;;;;0.10;0.10;;;;;;;10.83;67.81;102780.44;5046567;22;20108;-91
2021/11/18 03:49:41;;;;;;;0.10;0.10;;;;;;;10.84;67.92;102770.72;5034142;28;20436;-93
2021/11/18 03:52:11;;;;;;;0.10;0.10;;;;;;;10.89;67.96;102773.44;5032412;28;20436;-92
2021/11/18 03:54:39;;;;;;;3.40;1.65;;;;;;;10.89;67.93;102769.03;5033543;28;20044;-93
2021/11/18 03:57:07;;;;;;;0.10;0.10;;;;;;;10.92;67.80;102770.81;5030481;28;20525;-91
2021/11/18 03:59:36;;;;;;;0.10;0.10;;;;;;;10.88;68.01;102774.28;5015532;28;20021;-87
2021/11/18 04:02:03;;;;;;;0.25;0.15;;;;;;;10.86;67.96;102776.94;5013119;28;20057;-92
2021/11/18 04:04:37;;;;;;;0.10;0.10;;;;;;;10.89;67.85;102774.34;5002619;28;20033;-91
2021/11/18 04:07:03;;;;;;;0.10;0.10;;;;;;;10.86;68.00;102771.63;5007106;28;20038;-91
2021/11/18 04:09:30;;;;;;;0.10;0.10;;;;;;;10.87;67.85;102777.84;5015248;28;20034;-90
2021/11/18 04:11:59;;;;;;;0.10;0.10;;;;;;;10.81;67.81;102779.53;5015676;28;20491;-91
2021/11/18 04:14:27;;;;;;;0.10;0.10;;;;;;;10.80;67.52;102776.88;5011495;28;20030;-92
2021/11/18 04:16:53;;;;;;;0.10;0.10;;;;;;;10.78;67.95;102786.56;5010822;28;20548;-92
2021/11/18 04:19:20;;;;;;;5.28;0.85;;;;;;;10.80;67.87;102795.44;5013574;28;20124;-92
2021/11/18 04:21:47;;;;;;;0.10;0.10;;;;;;;10.64;68.28;102794.38;5007937;28;20022;-91
2021/11/18 04:24:16;;;;;;;1.40;1.33;;;;;;;10.65;68.06;102785.56;5010114;28;20052;-93
2021/11/18 04:26:45;;;;;;;0.10;0.10;;;;;;;10.61;68.17;102783.75;5012474;28;20030;-91
2021/11/18 04:29:12;;;;;;;0.20;0.20;;;;;;;10.57;68.24;102777.53;5007896;28;20474;-92
2021/11/18 04:31:40;;;;;;;0.10;0.10;;;;;;;10.56;68.16;102780.16;5002054;28;20038;-92
2021/11/18 04:34:08;;;;;;;0.10;0.10;;;;;;;10.58;68.05;102778.41;5011132;28;20500;-90
2021/11/18 04:36:36;;;;;;;0.10;0.10;;;;;;;10.51;68.32;102777.47;5014923;28;20092;-90
2021/11/18 04:39:06;;;;;;;0.30;0.30;;;;;;;10.46;68.37;102769.44;5015287;28;20088;-90
2021/11/18 04:41:32;;;;;;;0.20;0.20;;;;;;;10.51;68.19;102770.38;5005274;28;20037;-92
2021/11/18 04:43:59;;;;;;;0.13;0.13;;;;;;;10.48;68.24;102764.16;5005261;28;20026;-90
2021/11/18 04:46:25;;;;;;;0.10;0.10;;;;;;;10.41;68.01;102764.97;5012711;28;20410;-93
2021/11/18 04:48:52;;;;;;;0.10;0.10;;;;;;;10.42;68.49;102759.69;5013493;28;20037;-94
2021/11/18 04:51:21;;;;;;;0.10;0.10;;;;;;;10.38;68.31;102755.25;5006738;28;20125;-91
2021/11/18 04:53:48;;;;;;;0.10;0.10;;;;;;;10.34;68.15;102748.97;5010802;28;20045;-89
2021/11/18 04:56:15;;;;;;;0.20;0.20;;;;;;;10.31;68.41;102748.94;5014932;28;20030;-93
2021/11/18 04:58:42;;;;;;;0.10;0.10;;;;;;;10.26;68.60;102742.69;5008433;28;20044;-93
2021/11/18 05:01:10;;;;;;;0.20;0.20;;;;;;;10.25;68.56;102754.16;5013269;28;20029;-94
2021/11/18 05:03:37;;;;;;;0.20;0.20;;;;;;;10.26;68.83;102753.28;5013537;28;20042;-94
2021/11/18 05:06:04;;;;;;;0.10;0.10;;;;;;;10.27;68.58;102748.88;5004240;28;20112;-94
2021/11/18 05:08:31;;;;;;;2.55;1.42;;;;;;;10.16;69.46;102757.56;5013325;28;20114;-94
2021/11/18 05:10:58;;;;;;;12.60;1.45;;;;;;;10.24;68.64;102751.50;5009770;28;20064;-94
2021/11/18 05:13:27;;;;;;;0.77;0.50;;;;;;;10.25;69.17;102763.88;5014026;28;20066;-94
2021/11/18 05:15:55;;;;;;;0.30;0.30;;;;;;;10.33;68.65;102760.44;5008871;28;20413;-95
2021/11/18 05:18:22;;;;;;;0.10;0.10;;;;;;;10.32;69.04;102774.56;5006096;28;20041;-94
2021/11/18 05:20:48;;;;;;;0.10;0.10;;;;;;;10.36;68.89;102775.53;5008110;28;20544;-93
2021/11/18 05:23:16;;;;;;;0.50;0.50;;;;;;;10.36;68.93;102770.22;5011605;28;20037;-93
2021/11/18 05:25:43;;;;;;;0.10;0.10;;;;;;;10.30;69.26;102773.63;5013996;28;20034;-94
2021/11/18 05:28:10;;;;;;;0.10;0.10;;;;;;;10.33;68.80;102772.78;5014144;28;20084;-94
2021/11/18 05:30:37;;;;;;;14.75;1.85;;;;;;;10.25;68.95;102763.88;5002802;28;20022;-93
2021/11/18 05:33:08;;;;;;;0.20;0.20;;;;;;;10.33;68.71;102768.38;5006674;28;20030;-94
2021/11/18 05:35:35;;;;;;;0.10;0.10;;;;;;;10.33;69.15;102759.53;5012502;28;20080;-94
2021/11/18 05:38:03;;;;;;;0.10;0.10;;;;;;;10.40;69.24;102765.84;5013920;28;20389;-91
2021/11/18 05:40:31;;;;;;;0.22;0.22;;;;;;;10.38;69.31;102759.63;5012005;28;20022;-95
2021/11/18 05:42:58;;;;;;;0.52;0.52;;;;;;;10.46;69.13;102763.28;5009185;28;20080;-95
2021/11/18 05:45:27;;;;;;;0.20;0.20;;;;;;;10.47;69.00;102765.06;5002389;28;20022;-94
2021/11/18 05:47:57;;;;;;;0.10;0.10;;;;;;;10.55;68.92;102762.47;5012752;28;20045;-93
2021/11/18 05:50:24;;;;;;;0.00;0.00;;;;;;;10.55;68.75;102778.38;5013720;28;20025;-95
2021/11/18 05:52:50;;;;;;;0.08;0.08;;;;;;;10.49;69.61;102773.88;5011703;28;20029;-94
2021/11/18 05:55:20;;;;;;;0.10;0.10;;;;;;;10.57;69.25;102769.56;5004168;28;20114;-96
2021/11/18 05:57:46;;;;;;;0.05;0.05;;;;;;;10.63;68.92;102764.34;5012320;28;20022;-95
2021/11/18 06:00:17;;;;;;;0.10;0.10;;;;;;;10.65;68.88;102767.91;5012025;28;20061;-94
2021/11/18 06:02:44;;;;;;;0.10;0.10;;;;;;;10.60;68.81;102774.91;5010337;28;20022;-96
2021/11/18 06:05:12;;;;;;;0.63;0.57;;;;;;;10.67;68.61;102768.78;5010870;28;20116;-94
2021/11/18 06:07:39;;;;;;;0.00;0.00;;;;;;;10.68;68.57;102780.31;5013558;28;20030;-94
2021/11/18 06:10:07;;;;;;;0.10;0.10;;;;;;;10.63;68.61;102780.25;5011158;28;20050;-95
2021/11/18 06:12:34;;;;;;;0.10;0.10;;;;;;;10.57;69.00;102787.25;5013158;28;20022;-94
2021/11/18 06:15:01;;;;;;;0.10;0.10;;;;;;;10.52;69.17;102787.19;5011816;28;20121;-93
2021/11/18 06:17:27;;;;;;;0.13;0.13;;;;;;;10.62;68.78;102789.06;5007079;28;20026;-88
2021/11/18 06:19:54;;;;;;;0.10;0.10;;;;;;;10.62;68.50;102773.16;5007987;28;20878;-95
2021/11/18 06:22:25;;;;;;;0.10;0.10;;;;;;;10.64;68.63;102779.38;5010654;28;20033;-91
2021/11/18 06:24:52;;;;;;;0.10;0.10;;;;;;;10.62;68.36;102775.81;5013017;28;20022;-90
2021/11/18 06:27:19;;;;;;;0.10;0.10;;;;;;;10.58;68.49;102776.66;5008067;28;20057;-94
2021/11/18 06:29:46;;;;;;;0.38;0.38;;;;;;;10.60;68.31;102780.19;5010856;28;20034;-93
2021/11/18 06:32:12;;;;;;;0.10;0.10;;;;;;;10.50;68.47;102763.34;5007075;28;20065;-94
2021/11/18 06:34:41;;;;;;;0.10;0.10;;;;;;;10.43;68.60;102768.50;5006894;28;20034;-94
2021/11/18 06:37:09;;;;;;;0.10;0.10;;;;;;;10.40;68.54;102784.41;5007815;28;20034;-94
2021/11/18 06:39:40;;;;;;;0.10;0.10;;;;;;;10.36;68.57;102784.34;5010747;28;20032;-93
2021/11/18 06:42:08;;;;;;;0.17;0.17;;;;;;;10.36;68.59;102776.41;5009301;28;20117;-94
2021/11/18 06:44:35;;;;;;;0.10;0.10;;;;;;;10.36;68.77;102768.44;5006959;28;20470;-91
2021/11/18 06:47:02;;;;;;;0.55;0.55;;;;;;;10.31;68.74;102764.81;5041151;22;20400;-83
2021/11/18 06:49:29;;;;;;;0.95;0.95;;;;;;;10.30;68.75;102768.34;5035048;28;20026;-87
2021/11/18 06:51:55;;;;;;;0.10;0.10;;;;;;;10.26;68.93;102777.13;5034293;28;20044;-87
2021/11/18 06:54:22;;;;;;;0.10;0.10;;;;;;;10.26;69.23;102777.13;5033939;28;20354;-87
2021/11/18 06:56:49;;;;;;;0.10;0.10;;;;;;;10.32;69.21;102786.94;5034516;28;20482;-83
2021/11/18 06:59:15;;;;;;;0.22;0.22;;;;;;;10.32;69.14;102792.22;5034118;28;20036;-83
2021/11/18 07:01:42;;;;;;;0.10;0.10;;;;;;;10.38;69.05;102791.44;5034767;28;20439;-85
2021/11/18 07:04:10;;;;;;;0.73;0.73;;;;;;;10.42;69.05;102801.19;5034083;28;20025;-83
2021/11/18 07:06:38;;;;;;;0.10;0.10;;;;;;;10.42;69.06;102810.03;5033799;28;20099;-84
2021/11/18 07:09:07;;;;;;;0.10;0.10;;;;;;;10.51;69.23;102814.56;5033318;28;20022;-86
2021/11/18 07:11:34;;;;;;;0.43;0.43;;;;;;;10.46;69.16;102816.28;5033370;28;20064;-86
2021/11/18 07:14:01;;;;;;;0.20;0.20;;;;;;;10.48;69.17;102830.41;5034069;28;20041;-86
2021/11/18 07:16:28;;;;;;;0.00;0.00;;;;;;;10.47;68.91;102836.63;5033757;28;20045;-86
2021/11/18 07:18:54;;;;;;;0.10;0.10;;;;;;;10.56;68.71;102843.78;5033326;28;20025;-85
2021/11/18 07:21:22;;;;;;;0.08;0.08;;;;;;;10.57;68.77;102845.56;5034091;28;20029;-86
2021/11/18 07:23:51;;;;;;;0.10;0.10;;;;;;;10.55;69.00;102842.00;5034472;28;20038;-87
2021/11/18 07:26:18;;;;;;;0.10;0.10;;;;;;;10.59;68.93;102828.81;5034894;28;20040;-88
2021/11/18 07:28:44;;;;;;;0.10;0.10;;;;;;;10.61;69.07;102823.53;5034818;28;20037;-85
2021/11/18 07:31:12;;;;;;;0.10;0.10;;;;;;;10.65;68.99;102839.50;5034923;28;20116;-87
2021/11/18 07:33:39;;;;;;;0.10;0.10;;;;;;;10.70;68.71;102839.50;5034708;28;20116;-86
2021/11/18 07:36:06;;;;;;;0.55;0.55;;;;;;;10.71;68.84;102849.25;5034898;28;20511;-88
2021/11/18 07:38:34;;;;;;;0.10;0.10;;;;;;;10.68;69.02;102847.47;5034044;28;20068;-84
2021/11/18 07:41:00;;;;;;;0.10;0.10;;;;;;;10.74;68.74;102845.75;5031160;28;20119;-84
2021/11/18 07:43:31;;;;;;;0.10;0.10;;;;;;;10.64;68.81;102836.78;5028943;28;20030;-87
2021/11/18 07:46:02;;;;;;;0.57;0.57;;;;;;;10.70;68.87;102841.28;5029049;28;20120;-87
2021/11/18 07:48:29;;;;;;;0.60;0.60;;;;;;;10.67;68.81;102834.19;5034272;28;20044;-86
2021/11/18 07:50:58;;;;;;;0.10;0.10;;;;;;;10.71;68.97;102838.66;5032044;28;20036;-84
2021/11/18 07:53:25;;;;;;;0.10;0.10;;;;;;;10.77;69.16;102837.84;5031050;28;20134;-85
2021/11/18 07:55:51;;;;;;;0.50;0.50;;;;;;;10.73;69.10;102846.63;5032314;28;20055;-87
2021/11/18 07:58:18;;;;;;;0.10;0.10;;;;;;;10.86;68.65;102843.25;5031138;28;20037;-87
2021/11/18 08:00:47;;;;;;;1.20;0.57;;;;;;;10.89;68.93;102840.63;5033371;28;20045;-87
2021/11/18 08:03:15;;;;;;;0.10;0.10;;;;;;;10.90;68.70;102834.44;5029973;28;20026;-88
2021/11/18 08:05:42;;;;;;;2.05;1.88;;;;;;;10.89;68.63;102827.38;5031587;28;20025;-87
2021/11/18 08:08:09;;;;;;;0.13;0.13;;;;;;;10.87;68.92;102822.94;5031442;28;20071;-87
2021/11/18 08:10:35;;;;;;;0.25;0.25;;;;;;;10.88;68.62;102822.94;5029743;28;20021;-86
2021/11/18 08:13:02;;;;;;;0.70;0.70;;;;;;;10.90;68.69;102828.25;5031885;28;20035;-87
2021/11/18 08:15:36;;;;;;;0.20;0.20;;;;;;;10.96;68.57;102826.53;5032567;28;20049;-88
2021/11/18 08:18:03;;;;;;;0.10;0.10;;;;;;;11.00;68.36;102824.81;5027713;28;20507;-87
2021/11/18 08:20:29;;;;;;;0.10;0.10;;;;;;;10.96;68.32;102823.88;5027924;28;20025;-87
2021/11/18 08:22:55;;;;;;;0.10;0.10;;;;;;;10.95;68.38;102821.22;5035438;28;20045;-87
2021/11/18 08:25:25;;;;;;;0.75;0.75;;;;;;;10.97;68.21;102823.03;5035263;28;20029;-88
2021/11/18 08:27:51;;;;;;;0.10;0.10;;;;;;;10.91;68.37;102835.34;5029706;28;20032;-88
2021/11/18 08:30:22;;;;;;;0.10;0.10;;;;;;;10.94;68.71;102836.25;5036197;28;20518;-88
2021/11/18 08:32:50;;;;;;;2.00;0.90;;;;;;;10.90;68.39;102831.78;5036047;28;20393;-88
2021/11/18 08:35:20;;;;;;;0.20;0.20;;;;;;;10.93;68.50;102828.25;5035503;28;20488;-88
2021/11/18 08:37:47;;;;;;;4.55;0.70;;;;;;;11.03;68.33;102826.59;5035697;28;20414;-88
2021/11/18 08:40:17;;;;;;;0.00;0.00;;;;;;;11.10;68.15;102831.09;5034832;28;20022;-87
2021/11/18 08:42:44;;;;;;;0.65;0.65;;;;;;;11.02;68.34;102843.41;5035851;28;20074;-87
2021/11/18 08:45:12;;;;;;;0.10;0.10;;;;;;;11.17;68.54;102848.88;5035079;28;20022;-88
2021/11/18 08:47:39;;;;;;;0.10;0.10;;;;;;;11.10;68.45;102841.72;5034750;28;20079;-88
2021/11/18 08:50:11;;;;;;;0.77;0.77;;;;;;;11.21;68.35;102829.44;5034742;28;20493;-85
2021/11/18 08:52:38;;;;;;;0.15;0.15;;;;;;;11.18;68.37;102829.41;5029468;28;20105;-85
2021/11/18 08:55:09;;;;;;;1.95;0.73;;;;;;;11.36;67.93;102827.81;5034383;28;20091;-88
2021/11/18 08:57:36;;;;;;;0.52;0.52;;;;;;;11.42;67.93;102827.84;5032227;28;20034;-87
2021/11/18 09:00:07;;;;;;;0.40;0.40;;;;;;;11.51;68.28;102827.03;5035534;28;20091;-86
2021/11/18 09:02:33;;;;;;;0.10;0.10;;;;;;;11.65;68.01;102817.41;5029648;28;20079;-87
2021/11/18 09:04:59;;;;;;;0.32;0.32;;;;;;;11.75;67.70;102823.66;5035979;28;20110;-84
2021/11/18 09:07:25;;;;;;;0.10;0.10;;;;;;;11.73;67.51;102828.97;5035485;28;20034;-87
2021/11/18 09:09:51;;;;;;;0.10;0.10;;;;;;;11.87;67.43;102830.84;5034495;28;20208;-87
2021/11/18 09:12:17;;;;;;;0.10;0.10;;;;;;;11.87;67.42;102834.38;5025066;28;20040;-86
2021/11/18 09:14:44;;;;;;;19.95;1.73;;;;;;;11.90;67.18;102837.06;5032857;28;20051;-87
2021/11/18 09:17:12;;;;;;;0.03;0.03;;;;;;;11.96;67.49;102838.88;5023495;28;20022;-87
2021/11/18 09:19:42;;;;;;;0.10;0.10;;;;;;;11.95;66.57;102830.00;5020168;28;20084;-86
2021/11/18 09:22:11;;;;;;;0.70;0.57;;;;;;;11.91;66.50;102830.88;5019325;28;20113;-87
2021/11/18 09:24:44;;;;;;;0.08;0.08;;;;;;;11.98;66.56;102835.38;5019088;28;20029;-86
2021/11/18 09:27:15;;;;;;;0.10;0.10;;;;;;;12.04;66.08;102828.34;5024850;28;20481;-87
2021/11/18 09:29:44;;;;;;;0.20;0.20;;;;;;;11.94;66.66;102830.00;5033645;28;20021;-88
2021/11/18 09:32:11;;;;;;;0.22;0.22;;;;;;;11.92;66.13;102839.72;5033855;28;20744;-88
2021/11/18 09:34:39;;;;;;;0.20;0.20;;;;;;;11.99;66.35;102841.59;5033943;28;20053;-87
2021/11/18 09:37:05;;;;;;;0.10;0.10;;;;;;;12.01;66.17;102844.25;5032933;28;20116;-88
2021/11/18 09:39:31;;;;;;;0.80;0.80;;;;;;;12.02;65.60;102835.41;5034506;28;20032;-87
2021/11/18 09:45:09;;;;;;;1.02;1.02;;;;;;;12.26;65.63;102851.47;5073097;28;20454;-86
2021/11/18 09:50:43;;;;;;;0.10;0.10;;;;;;;12.45;64.89;102868.41;5073831;27;20418;-86
2021/11/18 09:53:38;;;;;;;0.30;0.30;;;;;;;12.54;65.01;102862.22;5066231;28;20037;-87
2021/11/18 09:56:13;;;;;;;0.10;0.10;;;;;;;12.41;64.97;102861.31;5065741;28;20056;-87
2021/11/18 10:04:48;;;;;;;0.20;0.20;;;;;;;12.57;64.74;102862.25;5064157;27;20448;-87
2021/11/18 10:16:27;;;;;;;0.20;0.20;;;;;;;12.87;63.65;102871.22;5070891;27;20138;-86
2021/11/18 10:19:00;;;;;;;0.15;0.15;;;;;;;13.03;64.11;102871.25;5055986;28;20040;-89
2021/11/18 10:21:32;;;;;;;0.10;0.10;;;;;;;13.09;63.33;102871.28;5050915;28;20026;-89
2021/11/18 10:24:07;;;;;;;5.63;1.88;;;;;;;13.13;62.98;102856.19;5051217;28;20052;-89
2021/11/18 10:26:42;;;;;;;5.68;2.17;;;;;;;13.12;63.80;102860.63;5051037;28;20021;-90
2021/11/18 10:29:16;;;;;;;0.57;0.57;;;;;;;13.10;62.61;102860.63;5051169;28;20029;-90
2021/11/18 10:31:59;;;;;;;0.10;0.10;;;;;;;13.20;62.59;102861.53;5050674;28;20032;-89
2021/11/18 10:37:15;;;;;;;0.10;0.10;;;;;;;13.35;62.74;102852.66;5104073;27;20419;-90
2021/11/18 10:45:13;;;;;;;0.10;0.10;;;;;;;13.50;62.01;102849.16;5106455;27;20418;-90
2021/11/18 10:47:55;;;;;;;0.32;0.32;;;;;;;13.62;62.09;102840.28;5070887;28;20024;-90
2021/11/18 10:56:05;;;;;;;0.82;0.82;;;;;;;13.65;61.18;102844.72;5050584;28;20396;-89
2021/11/18 10:58:35;;;;;;;4.30;1.67;;;;;;;13.71;61.81;102839.38;5043355;28;20040;-88
2021/11/18 11:01:13;;;;;;;0.15;0.15;;;;;;;13.80;61.47;102822.50;5040907;28;20028;-90
2021/11/18 11:03:43;;;;;;;10.02;1.95;;;;;;;13.80;61.15;102827.84;5040787;28;20079;-90
2021/11/18 11:11:59;;;;;;;0.52;0.52;;;;;;;14.09;60.54;102803.75;5070298;27;20496;-87
2021/11/18 11:15:02;;;;;;;0.20;0.20;;;;;;;14.10;60.25;102810.88;5064879;28;20045;-87
2021/11/18 11:17:58;;;;;;;0.10;0.10;;;;;;;14.18;60.40;102803.75;5054322;28;20047;-88
2021/11/18 11:20:49;;;;;;;0.88;0.88;;;;;;;14.17;60.53;102793.97;5044719;28;20068;-87
2021/11/18 11:23:30;;;;;;;28.13;1.33;;;;;;;14.31;60.36;102787.69;5050048;28;20025;-87
2021/11/18 11:26:27;;;;;;;0.10;0.10;;;;;;;14.39;59.75;102794.75;5050661;28;20065;-88
2021/11/18 11:29:22;;;;;;;0.40;0.40;;;;;;;14.39;59.79;102797.44;5049053;28;20075;-87
2021/11/18 11:32:15;;;;;;;2.25;2.05;;;;;;;14.44;59.27;102810.72;5045756;28;20025;-87
2021/11/18 11:34:55;;;;;;;0.32;0.32;;;;;;;14.60;59.58;102805.31;5048781;28;20063;-87
2021/11/18 11:40:51;;;;;;;8.50;0.52;;;;;;;14.51;58.61;102809.81;5069424;27;20438;-86
2021/11/18 11:46:30;;;;;;;0.20;0.20;;;;;;;14.76;58.51;102804.38;5057737;28;20929;-86
2021/11/18 11:49:22;;;;;;;0.10;0.10;;;;;;;14.91;58.24;102794.50;5048514;28;20476;-86
2021/11/18 11:52:00;;;;;;;0.20;0.20;;;;;;;14.82;58.08;102795.44;5054753;28;20059;-87
2021/11/18 11:54:41;;;;;;;0.25;0.25;;;;;;;14.87;58.10;102783.84;5057680;28;20044;-87
2021/11/18 12:03:15;;;;;;;1.80;1.70;;;;;;;14.85;57.76;102774.97;5077579;28;20415;-87
2021/11/18 12:08:54;;;;;;;0.10;0.10;;;;;;;14.60;58.01;102794.66;5070644;27;20402;-87
2021/11/18 12:14:25;;;;;;;0.10;0.10;;;;;;;14.63;58.55;102779.53;5123608;27;20463;-87
2021/11/18 12:16:59;;;;;;;1.23;1.17;;;;;;;14.65;58.66;102782.22;5071125;28;20087;-87
2021/11/18 12:19:48;;;;;;;0.40;0.40;;;;;;;14.83;58.53;102781.22;5072413;28;20464;-87
2021/11/18 12:22:34;;;;;;;0.00;0.00;;;;;;;14.86;58.26;102781.19;5069894;28;20044;-85
2021/11/18 12:31:17;;;;;;;0.20;0.20;;;;;;;14.87;58.36;102773.16;5062143;28;20406;-89
2021/11/18 12:36:56;;;;;;;0.10;0.10;;;;;;;15.03;58.64;102776.59;5141583;27;20398;-87
2021/11/18 12:45:19;;;;;;;0.10;0.10;;;;;;;15.12;58.02;102775.66;5072380;27;20413;-87
2021/11/18 12:58:57;;;;;;;0.10;0.10;;;;;;;15.03;58.20;102770.38;5060687;28;20473;-85
2021/11/18 13:04:04;;;;;;;0.20;0.20;;;;;;;15.01;57.95;102770.38;5122799;27;20792;-86
2021/11/18 13:09:11;;;;;;;0.10;0.10;;;;;;;15.15;57.99;102783.66;5073713;27;20414;-86